createdAt,value
2023-04-20T00:01:04.146Z,102400.34
2023-04-20T00:06:06.208Z,102396.00
2023-04-20T00:11:08.063Z,102390.09
2023-04-20T00:16:09.738Z,102379.50
2023-04-20T00:21:11.314Z,102365.31
2023-04-20T00:26:13.011Z,102365.44
2023-04-20T00:31:16.093Z,102373.09
2023-04-20T00:36:17.722Z,102366.47
2023-04-20T00:41:19.313Z,102354.28
2023-04-20T00:46:21.764Z,102353.41
2023-04-20T00:51:23.741Z,102351.09
2023-04-20T00:56:25.537Z,102341.81
2023-04-20T01:01:27.233Z,102331.38
2023-04-20T01:06:29.069Z,102328.47
2023-04-20T01:11:31.977Z,102329.63
2023-04-20T01:16:37.343Z,102313.38
2023-04-20T01:21:39.593Z,102297.03
2023-04-20T01:26:41.318Z,102296.44
2023-04-20T01:31:43.047Z,102280.94
2023-04-20T01:36:45.492Z,102277.31
2023-04-20T01:41:47.167Z,102276.75
2023-04-20T01:46:48.841Z,102259.50
2023-04-20T01:51:50.533Z,102261.84
2023-04-20T01:56:52.424Z,102251.97
2023-04-20T02:01:55.282Z,102249.09
2023-04-20T02:06:57.050Z,102247.88
2023-04-20T02:11:58.690Z,102237.16
2023-04-20T02:17:01.470Z,102237.75
2023-04-20T02:22:03.528Z,102225.56
2023-04-20T02:27:05.610Z,102216.19
2023-04-20T02:32:08.772Z,102206.84
2023-04-20T02:37:10.586Z,102203.06
2023-04-20T02:42:12.261Z,102190.75
2023-04-20T02:47:15.519Z,102190.75
2023-04-20T02:52:17.310Z,102181.06
2023-04-20T02:57:19.003Z,102174.25
2023-04-20T03:02:21.192Z,102162.97
2023-04-20T03:07:23.127Z,102166.59
2023-04-20T03:12:26.185Z,102156.03
2023-04-20T03:17:33.423Z,102144.56
2023-04-20T03:22:35.208Z,102136.75
2023-04-20T03:27:37.682Z,102129.78
2023-04-20T03:32:45.199Z,102116.47
2023-04-20T03:37:47.050Z,102117.66
2023-04-20T03:42:48.694Z,102107.50
2023-04-20T03:47:50.458Z,102101.75
2023-04-20T03:52:52.091Z,102099.06
2023-04-20T03:57:54.886Z,102090.25
2023-04-20T04:02:57.296Z,102083.53
2023-04-20T04:08:02.636Z,102078.44
2023-04-20T04:13:05.000Z,102074.69
2023-04-20T04:18:06.854Z,102068.34
2023-04-20T04:23:17.025Z,102062.69
2023-04-20T04:28:22.670Z,102053.00
2023-04-20T04:33:34.731Z,102046.94
2023-04-20T04:38:37.247Z,102047.75
2023-04-20T04:43:41.907Z,102042.28
2023-04-20T04:48:53.294Z,102029.81
2023-04-20T04:53:55.187Z,102035.34
2023-04-20T04:58:56.858Z,102027.72
2023-04-20T05:03:58.725Z,102030.03
2023-04-20T05:09:00.501Z,102020.84
2023-04-20T05:14:03.440Z,102020.94
2023-04-20T05:19:07.996Z,102014.00
2023-04-20T05:24:09.873Z,102026.84
2023-04-20T05:29:12.765Z,102024.56
2023-04-20T05:34:14.524Z,102027.31
2023-04-20T05:39:16.812Z,102006.63
2023-04-20T05:44:18.748Z,102006.88
2023-04-20T05:49:20.557Z,102001.56
2023-04-20T05:54:26.702Z,102002.56
2023-04-20T05:59:28.628Z,102003.81
2023-04-20T06:04:30.810Z,102005.34
2023-04-20T06:09:32.724Z,102002.75
2023-04-20T06:14:34.373Z,101999.19
2023-04-20T06:19:36.065Z,101987.47
2023-04-20T06:24:38.752Z,101990.38
2023-04-20T06:29:43.002Z,102003.06
2023-04-20T06:34:44.647Z,101994.50
2023-04-20T06:39:46.368Z,101990.69
2023-04-20T06:44:48.031Z,101985.00
2023-04-20T06:49:49.598Z,101983.91
2023-04-20T06:54:51.231Z,101976.84
2023-04-20T06:59:52.840Z,101981.56
2023-04-20T07:05:01.017Z,101984.50
2023-04-20T07:10:02.710Z,101978.88
2023-04-20T07:15:05.859Z,101972.22
2023-04-20T07:20:08.675Z,101979.63
2023-04-20T07:25:13.980Z,101968.81
2023-04-20T07:30:16.039Z,101972.69
2023-04-20T07:35:17.634Z,101989.25
2023-04-20T07:40:19.662Z,101972.38
2023-04-20T07:45:21.899Z,101970.78
2023-04-20T07:50:23.547Z,101966.75
2023-04-20T07:55:25.158Z,101954.56
2023-04-20T08:00:27.042Z,101962.72
2023-04-20T08:05:28.973Z,101974.38
2023-04-20T08:10:30.701Z,101969.03
2023-04-20T08:15:32.351Z,101963.84
2023-04-20T08:20:34.746Z,101972.88
2023-04-20T08:25:39.835Z,101968.09
2023-04-20T08:30:42.788Z,101971.84
2023-04-20T08:35:44.498Z,101983.41
2023-04-20T08:40:46.431Z,101971.41
2023-04-20T08:45:51.792Z,101953.91
2023-04-20T08:50:55.809Z,101943.72
2023-04-20T08:55:58.010Z,101956.59
2023-04-20T09:01:02.574Z,101953.03
2023-04-20T09:06:06.451Z,101946.97
2023-04-20T09:11:21.456Z,101915.47
2023-04-20T09:16:23.097Z,101931.50
2023-04-20T09:21:28.089Z,101933.97
2023-04-20T09:26:34.501Z,101922.97
2023-04-20T09:31:37.167Z,101917.47
2023-04-20T09:36:43.792Z,101918.94
2023-04-20T09:41:46.134Z,101909.41
2023-04-20T09:46:47.762Z,101912.28
2023-04-20T09:51:49.785Z,101917.34
2023-04-20T09:56:56.901Z,101917.78
2023-04-20T10:01:58.767Z,101925.28
2023-04-20T10:07:06.050Z,101908.25
2023-04-20T10:12:10.259Z,101899.25
2023-04-20T10:17:11.997Z,101892.53
2023-04-20T10:22:25.543Z,101893.88
2023-04-20T10:27:28.035Z,101880.41
2023-04-20T10:32:29.801Z,101882.09
2023-04-20T10:37:32.239Z,101898.56
2023-04-20T10:42:44.675Z,101888.47
2023-04-20T10:47:46.328Z,101890.66
2023-04-20T10:52:49.753Z,101885.72
2023-04-20T10:57:52.075Z,101887.56
2023-04-20T11:02:56.401Z,101890.69
2023-04-20T11:08:02.398Z,101877.69
2023-04-20T11:13:04.096Z,101882.06
2023-04-20T11:18:11.365Z,101885.25
2023-04-20T11:23:13.047Z,101868.94
2023-04-20T11:28:14.654Z,101858.97
2023-04-20T11:33:28.136Z,101856.81
2023-04-20T11:38:34.582Z,101852.03
2023-04-20T11:43:36.300Z,101842.28
2023-04-20T11:48:37.982Z,101846.25
2023-04-20T11:53:40.062Z,101832.84
2023-04-20T11:58:41.947Z,101839.75
2023-04-20T12:03:46.161Z,101826.00
2023-04-20T12:08:49.381Z,101819.50
2023-04-20T12:13:52.008Z,101810.22
2023-04-20T12:18:53.934Z,101812.91
2023-04-20T12:23:56.515Z,101807.09
2023-04-20T12:28:58.292Z,101809.66
2023-04-20T12:33:59.994Z,101801.94
2023-04-20T12:39:01.746Z,101803.84
2023-04-20T12:44:07.043Z,101795.19
2023-04-20T12:49:11.786Z,101797.75
2023-04-20T12:54:13.431Z,101796.63
2023-04-20T12:59:15.110Z,101790.66
2023-04-20T13:04:17.140Z,101787.75
2023-04-20T13:09:19.057Z,101787.03
2023-04-20T13:14:21.209Z,101784.59
2023-04-20T13:19:23.053Z,101785.78
2023-04-20T13:24:24.812Z,101779.94
2023-04-20T13:29:28.092Z,101776.88
2023-04-20T13:34:29.804Z,101786.59
2023-04-20T13:39:31.597Z,101778.03
2023-04-20T13:44:33.729Z,101768.47
2023-04-20T13:49:38.164Z,101777.25
2023-04-20T13:54:39.859Z,101756.41
2023-04-20T13:59:42.023Z,101743.53
2023-04-20T14:04:43.838Z,101755.78
2023-04-20T14:09:46.129Z,101752.66
2023-04-20T14:14:48.476Z,101740.38
2023-04-20T14:19:50.117Z,101732.16
2023-04-20T14:24:51.789Z,101731.09
2023-04-20T14:29:53.427Z,101716.56
2023-04-20T14:34:55.066Z,101727.59
2023-04-20T14:39:57.019Z,101726.44
2023-04-20T14:44:58.626Z,101713.38
2023-04-20T14:50:00.268Z,101717.50
2023-04-20T14:55:02.361Z,101716.28
2023-04-20T15:00:06.437Z,101719.38
2023-04-20T15:05:10.617Z,101710.41
2023-04-20T15:10:13.004Z,101708.00
2023-04-20T15:15:16.584Z,101711.06
2023-04-20T15:20:18.704Z,101694.22
2023-04-20T15:25:20.512Z,101689.03
2023-04-20T15:30:22.238Z,101683.09
2023-04-20T15:35:23.842Z,101677.06
2023-04-20T15:40:27.497Z,101672.69
2023-04-20T15:45:31.291Z,101681.16
2023-04-20T15:50:33.180Z,101668.09
2023-04-20T15:55:38.801Z,101683.75
2023-04-20T16:00:41.710Z,101683.53
2023-04-20T16:05:43.477Z,101676.28
2023-04-20T16:10:45.255Z,101682.00
2023-04-20T16:15:47.087Z,101688.59
2023-04-20T16:20:48.828Z,101688.84
2023-04-20T16:25:50.914Z,101686.97
2023-04-20T16:30:52.670Z,101691.09
2023-04-20T16:35:54.778Z,101687.97
2023-04-20T16:40:56.425Z,101683.13
2023-04-20T16:45:58.169Z,101689.53
2023-04-20T16:50:59.879Z,101683.31
2023-04-20T16:56:01.529Z,101686.59
2023-04-20T17:01:03.678Z,101675.19
2023-04-20T17:06:08.009Z,101676.22
2023-04-20T17:11:09.892Z,101681.03
2023-04-20T17:16:13.191Z,101659.16
2023-04-20T17:21:14.859Z,101674.34
2023-04-20T17:26:16.493Z,101667.63
2023-04-20T17:31:18.159Z,101668.31
2023-04-20T17:36:19.772Z,101668.34
2023-04-20T17:41:21.415Z,101662.63
2023-04-20T17:46:23.467Z,101673.16
2023-04-20T17:51:25.201Z,101678.16
2023-04-20T17:56:27.253Z,101683.16
2023-04-20T18:01:30.419Z,101674.88
2023-04-20T18:06:33.711Z,101679.03
2023-04-20T18:11:35.718Z,101686.94
2023-04-20T18:16:37.447Z,101688.50
2023-04-20T18:21:39.069Z,101689.84
2023-04-20T18:26:40.733Z,101706.03
2023-04-20T18:31:45.506Z,101706.03
2023-04-20T18:36:47.252Z,101714.13
2023-04-20T18:41:48.868Z,101715.84
2023-04-20T18:46:53.548Z,101700.28
2023-04-20T18:51:55.281Z,101694.44
2023-04-20T18:56:56.946Z,101699.59
2023-04-20T19:01:59.186Z,101706.84
2023-04-20T19:07:00.917Z,101700.34
2023-04-20T19:12:02.793Z,101705.41
2023-04-20T19:17:06.705Z,101710.56
2023-04-20T19:22:08.394Z,101704.19
2023-04-20T19:27:10.738Z,101697.75
2023-04-20T19:32:13.022Z,101709.69
2023-04-20T19:37:15.013Z,101714.00
2023-04-20T19:42:18.546Z,101718.38
2023-04-20T19:47:20.883Z,101732.75
2023-04-20T19:52:22.671Z,101734.03
2023-04-20T19:57:24.399Z,101711.78
2023-04-20T20:02:26.291Z,101716.88
2023-04-20T20:07:28.169Z,101708.13
2023-04-20T20:12:29.924Z,101696.78
2023-04-20T20:17:31.729Z,101701.00
2023-04-20T20:22:33.795Z,101692.28
2023-04-20T20:27:35.797Z,101696.28
2023-04-20T20:32:37.545Z,101705.84
2023-04-20T20:37:42.206Z,101703.16
2023-04-20T20:42:45.108Z,101701.09
2023-04-20T20:47:47.043Z,101699.09
2023-04-20T20:52:49.458Z,101695.66
2023-04-20T20:57:51.427Z,101691.16
2023-04-20T21:02:53.128Z,101690.72
2023-04-20T21:07:54.881Z,101676.22
2023-04-20T21:12:56.454Z,101683.91
2023-04-20T21:17:58.164Z,101670.00
2023-04-20T21:22:59.817Z,101678.16
2023-04-20T21:28:01.633Z,101679.97
2023-04-20T21:33:03.364Z,101670.09
2023-04-20T21:38:05.019Z,101663.56
2023-04-20T21:43:06.690Z,101668.44
2023-04-20T21:48:09.875Z,101671.50
2023-04-20T21:53:14.056Z,101667.91
2023-04-20T21:58:15.867Z,101664.44
2023-04-20T22:03:17.884Z,101662.47
2023-04-20T22:08:23.592Z,101657.75
2023-04-20T22:13:25.322Z,101662.63
2023-04-20T22:18:26.991Z,101656.66
2023-04-20T22:23:28.569Z,101651.41
2023-04-20T22:28:30.846Z,101651.00
2023-04-20T22:33:32.471Z,101657.22
2023-04-20T22:38:37.968Z,101672.06
2023-04-20T22:43:41.457Z,101661.00
2023-04-20T22:48:43.190Z,101673.34
2023-04-20T22:53:45.019Z,101658.41
2023-04-20T22:58:46.615Z,101649.22
2023-04-20T23:03:48.938Z,101646.84
2023-04-20T23:08:50.951Z,101637.38
2023-04-20T23:13:53.318Z,101631.97
2023-04-20T23:18:55.016Z,101612.75
2023-04-20T23:23:57.770Z,101614.63
2023-04-20T23:28:59.732Z,101609.53
2023-04-20T23:34:01.371Z,101605.66
2023-04-20T23:39:03.187Z,101603.56
2023-04-20T23:44:04.910Z,101591.84
2023-04-20T23:49:06.647Z,101572.66
2023-04-20T23:54:08.246Z,101559.63
2023-04-20T23:59:09.918Z,101537.50
